TimeCDT,TemperatureF,Dew PointF,Humidity,Sea Level PressureIn,VisibilityMPH,Wind Direction,Wind SpeedMPH,Gust SpeedMPH,PrecipitationIn,Events,Conditions,WindDirDegrees,DateUTC
12:53 AM,46.0,43.0,89,30.16,10.0,Calm,Calm,-,N/A,,Clear,0,2013-08-13 05:53:00
1:53 AM,45.0,42.1,90,30.17,10.0,NNW,3.5,-,N/A,,Clear,330,2013-08-13 06:53:00
2:53 AM,44.1,41.0,89,30.18,10.0,NW,3.5,-,N/A,,Clear,320,2013-08-13 07:53:00
3:53 AM,42.1,39.9,92,30.19,10.0,WNW,4.6,-,N/A,,Clear,290,2013-08-13 08:53:00
4:53 AM,42.1,39.9,92,30.18,10.0,Calm,Calm,-,N/A,,Clear,0,2013-08-13 09:53:00
5:53 AM,42.1,39.9,92,30.19,10.0,Calm,Calm,-,N/A,,Clear,0,2013-08-13 10:53:00
6:53 AM,42.1,39.9,92,30.20,10.0,NW,3.5,-,N/A,,Clear,310,2013-08-13 11:53:00
7:53 AM,52.0,48.0,86,30.21,10.0,NW,3.5,-,N/A,,Clear,320,2013-08-13 12:53:00
8:53 AM,62.1,48.9,62,30.22,10.0,Variable,3.5,-,N/A,,Clear,0,2013-08-13 13:53:00
9:53 AM,66.0,46.0,48,30.23,10.0,North,5.8,-,N/A,,Clear,360,2013-08-13 14:53:00
10:53 AM,68.0,42.1,39,30.23,10.0,North,9.2,-,N/A,,Clear,10,2013-08-13 15:53:00
11:53 AM,70.0,42.1,36,30.23,10.0,NNE,8.1,-,N/A,,Clear,30,2013-08-13 16:53:00
12:53 PM,70.0,42.1,36,30.23,10.0,Calm,Calm,-,N/A,,Partly Cloudy,0,2013-08-13 17:53:00
1:53 PM,72.0,42.1,34,30.22,10.0,NNW,5.8,-,N/A,,Scattered Clouds,330,2013-08-13 18:53:00
2:53 PM,73.0,43.0,34,30.21,10.0,North,9.2,-,N/A,,Mostly Cloudy,350,2013-08-13 19:53:00
3:53 PM,73.9,43.0,33,30.20,10.0,NNW,6.9,-,N/A,,Partly Cloudy,340,2013-08-13 20:53:00
4:53 PM,71.1,43.0,36,30.19,10.0,NNW,6.9,-,N/A,,Scattered Clouds,330,2013-08-13 21:53:00
5:53 PM,71.1,43.0,36,30.18,10.0,North,8.1,-,N/A,,Clear,350,2013-08-13 22:53:00
6:53 PM,73.0,43.0,34,30.18,10.0,North,8.1,-,N/A,,Clear,360,2013-08-13 23:53:00
7:53 PM,68.0,43.0,40,30.17,10.0,NNE,8.1,-,N/A,,Clear,20,2013-08-14 00:53:00
8:53 PM,64.0,43.0,46,30.17,10.0,ENE,4.6,-,N/A,,Clear,60,2013-08-14 01:53:00
9:53 PM,60.1,43.0,53,30.19,10.0,Calm,Calm,-,N/A,,Clear,0,2013-08-14 02:53:00
10:53 PM,53.1,43.0,69,30.20,10.0,Calm,Calm,-,N/A,,Clear,0,2013-08-14 03:53:00
11:53 PM,53.1,44.1,71,30.20,10.0,Calm,Calm,-,N/A,,Clear,0,2013-08-14 04:53:00